Time;durP1;ratioP1;P1;durP2;ratioP2;P2;SDS_P1;SDS_P2;PMS_P1;PMS_P2;Temp;Humidity;BMP_temperature;BMP_pressure;BME280_temperature;BME280_humidity;BME280_pressure;Samples;Min_cycle;Max_cycle;Signal;HPM_P1;HPM_P2
2023/11/05 00:00:38;;;;;;;0.32;0.32;;;;;;;23.03;88.94;95075.06;7391219;19;20022;-61
2023/11/05 00:03:04;;;;;;;0.95;0.57;;;;;;;21.36;94.51;95080.03;7390771;19;20017;-61
2023/11/05 00:05:30;;;;;;;0.70;0.25;;;;;;;23.64;84.66;95083.47;7394128;19;20011;-60
2023/11/05 00:07:56;;;;;;;1.08;0.90;;;;;;;13.93;100.00;95095.22;7392534;19;20014;-61
2023/11/05 00:10:22;;;;;;;0.20;0.20;;;;;;;11.58;100.00;95096.22;7394549;19;20034;-62
2023/11/05 00:12:49;;;;;;;0.57;0.57;;;;;;;10.38;100.00;95100.59;7393043;19;20010;-61
2023/11/05 00:15:15;;;;;;;0.15;0.15;;;;;;;10.06;100.00;95103.13;7392983;19;20050;-62
2023/11/05 00:17:42;;;;;;;1.00;1.00;;;;;;;9.66;100.00;95112.78;7391001;19;20014;-61
2023/11/05 00:20:09;;;;;;;0.93;0.47;;;;;;;10.83;100.00;95109.25;7392733;19;20392;-61
2023/11/05 00:22:35;;;;;;;0.20;0.20;;;;;;;10.66;100.00;95108.13;7390901;19;20010;-61
2023/11/05 00:25:02;;;;;;;0.77;0.30;;;;;;;10.69;100.00;95100.66;7392606;19;20025;-61
2023/11/05 00:27:28;;;;;;;0.50;0.30;;;;;;;9.60;100.00;95111.63;7393466;19;20022;-61
2023/11/05 00:29:56;;;;;;;1.27;0.20;;;;;;;9.48;100.00;95119.06;7392800;19;20011;-62
2023/11/05 00:32:22;;;;;;;1.92;1.15;;;;;;;9.30;100.00;95120.50;7392043;19;20007;-62
2023/11/05 00:34:49;;;;;;;0.50;0.25;;;;;;;9.28;100.00;95123.13;7391001;19;20010;-62
2023/11/05 00:37:15;;;;;;;10.82;0.52;;;;;;;9.18;100.00;95126.63;7390045;19;20021;-62
2023/11/05 00:39:43;;;;;;;3.50;1.17;;;;;;;9.08;100.00;95133.44;7392669;19;20555;-62
2023/11/05 00:42:09;;;;;;;0.32;0.32;;;;;;;9.14;100.00;95139.44;7395696;19;20007;-62
2023/11/05 00:44:35;;;;;;;3.17;1.95;;;;;;;9.23;100.00;95138.00;7397618;19;20010;-61
2023/11/05 00:47:01;;;;;;;1.23;0.57;;;;;;;9.02;100.00;95147.63;7397709;19;20011;-62
2023/11/05 00:49:27;;;;;;;0.20;0.20;;;;;;;9.07;100.00;95148.66;7396977;19;20355;-61
2023/11/05 00:51:53;;;;;;;1.95;0.85;;;;;;;9.04;100.00;95160.91;7403589;19;20025;-61
2023/11/05 00:54:19;;;;;;;1.35;1.23;;;;;;;9.01;100.00;95162.03;7396105;19;20370;-61
2023/11/05 00:56:45;;;;;;;9.15;0.63;;;;;;;9.00;100.00;95172.44;7401430;19;20024;-62
2023/11/05 00:59:11;;;;;;;1.38;0.52;;;;;;;8.98;100.00;95175.06;7397975;19;20006;-62
2023/11/05 01:01:38;;;;;;;0.40;0.40;;;;;;;9.00;100.00;95166.88;7399227;19;20031;-61
2023/11/05 01:04:04;;;;;;;0.68;0.55;;;;;;;9.03;100.00;95174.03;7397251;19;20362;-62
2023/11/05 01:06:30;;;;;;;5.68;2.08;;;;;;;9.27;100.00;95183.47;7398312;19;20019;-61
2023/11/05 01:08:56;;;;;;;0.20;0.20;;;;;;;9.01;100.00;95182.19;7398426;19;20010;-61
2023/11/05 01:11:22;;;;;;;1.75;0.50;;;;;;;9.01;100.00;95190.53;7400959;19;20021;-61
2023/11/05 01:13:49;;;;;;;0.28;0.28;;;;;;;8.93;100.00;95189.91;7396679;19;20015;-61
2023/11/05 01:16:15;;;;;;;0.32;0.32;;;;;;;9.02;100.00;95197.56;7397257;19;20019;-61
2023/11/05 01:18:41;;;;;;;5.10;0.38;;;;;;;9.29;100.00;95202.31;7397369;19;20011;-61
2023/11/05 01:21:08;;;;;;;3.70;0.55;;;;;;;9.44;100.00;95199.28;7397826;19;20020;-61
2023/11/05 01:23:34;;;;;;;1.00;0.70;;;;;;;9.04;100.00;95206.03;7398641;19;20099;-61
2023/11/05 01:26:00;;;;;;;0.50;0.50;;;;;;;8.96;100.00;95215.78;7400471;19;20010;-61
2023/11/05 01:28:27;;;;;;;0.30;0.30;;;;;;;8.96;100.00;95215.78;7396235;19;20010;-62
2023/11/05 01:30:53;;;;;;;0.75;0.32;;;;;;;9.01;100.00;95229.38;7395636;19;20014;-62
2023/11/05 01:33:19;;;;;;;2.70;1.00;;;;;;;9.08;100.00;95230.56;7395428;19;20392;-62
2023/11/05 01:35:45;;;;;;;3.33;1.30;;;;;;;9.37;100.00;95241.78;7395627;19;20010;-62
2023/11/05 01:38:12;;;;;;;6.72;1.25;;;;;;;9.01;100.00;95246.00;7394982;19;20039;-62
2023/11/05 01:40:38;;;;;;;1.13;1.13;;;;;;;8.97;100.00;95245.72;7394660;19;20010;-62
2023/11/05 01:43:04;;;;;;;4.43;0.73;;;;;;;9.03;100.00;95254.50;7396672;19;20025;-62
2023/11/05 01:45:30;;;;;;;4.13;0.98;;;;;;;9.09;100.00;95257.75;7398699;19;20023;-62
2023/11/05 01:47:56;;;;;;;2.03;0.98;;;;;;;9.16;100.00;95268.00;7397154;19;20352;-62
2023/11/05 01:50:23;;;;;;;0.57;0.57;;;;;;;8.95;100.00;95264.97;7397259;19;20006;-62
2023/11/05 01:52:54;;;;;;;0.55;0.50;;;;;;;8.83;100.00;95277.16;7396548;19;20014;-61
2023/11/05 01:55:21;;;;;;;;;;;;;;;8.86;100.00;95279.50;7395147;19;20066;-62
2023/11/05 01:57:47;;;;;;;0.95;0.35;;;;;;;8.90;100.00;95285.38;7397052;19;19911;-62
2023/11/05 02:00:14;;;;;;;3.13;1.75;;;;;;;8.91;100.00;95289.63;7394395;19;20011;-62
2023/11/05 02:02:41;;;;;;;1.27;0.70;;;;;;;8.85;100.00;95291.19;7393119;19;20014;-62
2023/11/05 02:05:08;;;;;;;0.88;0.88;;;;;;;8.88;100.00;95299.09;7392790;19;20015;-62
2023/11/05 02:07:35;;;;;;;0.70;0.70;;;;;;;8.99;100.00;95300.59;7393571;19;20043;-61
2023/11/05 02:10:03;;;;;;;0.40;0.40;;;;;;;9.14;100.00;95303.19;7392507;19;20014;-61
2023/11/05 02:12:29;;;;;;;1.20;1.02;;;;;;;8.98;100.00;95313.78;7394414;19;20014;-61
2023/11/05 02:14:56;;;;;;;26.52;1.98;;;;;;;9.01;100.00;95312.59;7392701;19;20010;-61
2023/11/05 02:17:23;;;;;;;0.63;0.63;;;;;;;8.75;100.00;95310.53;7394523;19;20475;-61
2023/11/05 02:19:51;;;;;;;1.40;0.93;;;;;;;8.82;100.00;95318.03;7397475;19;20022;-61
2023/11/05 02:22:20;;;;;;;2.40;0.68;;;;;;;8.83;100.00;95318.78;7393772;19;20047;-61
2023/11/05 02:24:47;;;;;;;0.30;0.30;;;;;;;8.75;100.00;95329.22;7395726;19;20023;-61
2023/11/05 02:27:13;;;;;;;0.70;0.70;;;;;;;8.81;100.00;95333.22;7393997;19;20412;-62
2023/11/05 02:29:39;;;;;;;2.10;1.13;;;;;;;8.90;100.00;95340.16;7395242;19;20035;-62
2023/11/05 02:32:06;;;;;;;2.17;0.95;;;;;;;8.91;100.00;95342.34;7394854;19;20006;-62
2023/11/05 02:34:33;;;;;;;0.22;0.22;;;;;;;8.90;100.00;95351.25;7395309;19;20428;-62
2023/11/05 02:36:59;;;;;;;0.57;0.57;;;;;;;9.00;100.00;95350.00;7394908;19;20347;-62
2023/11/05 02:39:25;;;;;;;3.70;0.82;;;;;;;8.99;100.00;95354.06;7394581;19;20348;-62
2023/11/05 02:41:52;;;;;;;2.10;1.05;;;;;;;9.17;100.00;95357.53;7394637;19;20014;-62
2023/11/05 02:44:18;;;;;;;0.82;0.80;;;;;;;9.06;100.00;95358.03;7395314;19;20069;-62
2023/11/05 02:46:45;;;;;;;1.10;0.85;;;;;;;8.92;100.00;95371.53;7393635;19;20017;-61
2023/11/05 02:49:12;;;;;;;7.13;0.70;;;;;;;8.94;100.00;95368.91;7395108;19;20011;-61
2023/11/05 02:51:38;;;;;;;2.05;0.82;;;;;;;8.84;100.00;95373.66;7394745;19;20047;-61
2023/11/05 02:54:05;;;;;;;0.25;0.25;;;;;;;8.73;100.00;95382.47;7396667;19;20018;-62
2023/11/05 02:56:31;;;;;;;0.82;0.55;;;;;;;8.72;100.00;95394.91;7394017;19;20496;-62
2023/11/05 02:58:58;;;;;;;0.17;0.17;;;;;;;8.79;100.00;95385.72;7394039;19;20010;-62
2023/11/05 03:01:27;;;;;;;0.57;0.35;;;;;;;8.84;100.00;95393.09;7397006;19;20081;-61
2023/11/05 03:03:53;;;;;;;0.17;0.13;;;;;;;8.77;100.00;95396.66;7392242;19;20030;-61
2023/11/05 03:06:20;;;;;;;0.68;0.38;;;;;;;9.53;100.00;95404.06;7393164;19;20070;-61
2023/11/05 03:08:46;;;;;;;1.67;0.82;;;;;;;9.02;100.00;95396.56;7393249;19;20018;-61
2023/11/05 03:11:12;;;;;;;0.63;0.57;;;;;;;9.17;100.00;95401.94;7398430;19;20015;-62
2023/11/05 03:13:38;;;;;;;1.40;0.30;;;;;;;8.85;100.00;95416.75;7392440;19;20007;-62
2023/11/05 03:16:07;;;;;;;2.25;1.10;;;;;;;9.06;100.00;95414.28;7392269;19;20018;-62
2023/11/05 03:18:34;;;;;;;0.30;0.30;;;;;;;9.07;100.00;95418.50;7394065;19;20017;-62
2023/11/05 03:21:00;;;;;;;0.25;0.25;;;;;;;9.09;100.00;95423.50;7392109;19;20020;-62
2023/11/05 03:23:26;;;;;;;0.30;0.30;;;;;;;9.08;100.00;95433.88;7397905;19;20387;-62
2023/11/05 03:25:52;;;;;;;0.50;0.50;;;;;;;8.80;100.00;95442.69;7392382;19;20014;-62
2023/11/05 03:28:19;;;;;;;0.40;0.40;;;;;;;8.72;100.00;95444.81;7393075;19;20025;-62
2023/11/05 03:30:46;;;;;;;0.52;0.30;;;;;;;8.71;100.00;95462.00;7393228;19;20010;-62
2023/11/05 03:33:12;;;;;;;0.63;0.63;;;;;;;8.73;100.00;95456.63;7392103;19;20003;-63
2023/11/05 03:35:38;;;;;;;0.75;0.35;;;;;;;8.81;100.00;95460.81;7396472;19;20023;-63
2023/11/05 03:38:04;;;;;;;2.05;0.57;;;;;;;8.84;100.00;95467.97;7392333;19;20475;-63
2023/11/05 03:40:30;;;;;;;0.80;0.63;;;;;;;8.80;100.00;95467.66;7392904;19;20014;-62
2023/11/05 03:42:57;;;;;;;2.30;0.75;;;;;;;8.66;100.00;95474.81;7391870;19;20015;-62
2023/11/05 03:45:23;;;;;;;0.82;0.32;;;;;;;8.63;100.00;95475.94;7392896;19;20015;-62
2023/11/05 03:47:49;;;;;;;0.88;0.52;;;;;;;8.63;100.00;95470.41;7395945;19;20340;-62
2023/11/05 03:50:15;;;;;;;0.20;0.20;;;;;;;8.55;100.00;95483.63;7393818;19;20035;-62
2023/11/05 03:52:42;;;;;;;0.25;0.25;;;;;;;8.62;100.00;95490.41;7392052;19;20554;-62
2023/11/05 03:55:09;;;;;;;0.38;0.20;;;;;;;8.54;100.00;95498.75;7390626;19;20013;-62
2023/11/05 03:57:35;;;;;;;0.88;0.17;;;;;;;8.51;100.00;95510.97;7394151;19;20014;-62
2023/11/05 04:00:05;;;;;;;0.57;0.32;;;;;;;8.70;100.00;95505.66;7395394;19;20041;-63
2023/11/05 04:02:31;;;;;;;1.85;1.58;;;;;;;8.51;100.00;95504.72;7389171;19;20406;-62
2023/11/05 04:04:57;;;;;;;5.05;0.68;;;;;;;8.42;100.00;95519.19;7390174;19;20010;-62
2023/11/05 04:07:23;;;;;;;1.10;0.57;;;;;;;8.93;100.00;95528.38;7391255;19;20070;-62
2023/11/05 04:09:49;;;;;;;0.93;0.77;;;;;;;8.79;100.00;95529.97;7392277;19;20018;-62
2023/11/05 04:12:17;;;;;;;0.38;0.30;;;;;;;8.98;100.00;95529.44;7393928;19;20015;-62
2023/11/05 04:14:43;;;;;;;0.10;0.03;;;;;;;8.93;100.00;95542.25;7392449;19;20044;-62
2023/11/05 04:17:09;;;;;;;0.52;0.52;;;;;;;9.05;100.00;95548.78;7397087;19;20014;-62
2023/11/05 04:19:35;;;;;;;0.63;0.45;;;;;;;9.00;100.00;95549.75;7397563;19;20010;-62
2023/11/05 04:22:01;;;;;;;0.98;0.52;;;;;;;8.89;100.00;95553.00;7400954;19;20017;-62
2023/11/05 04:24:27;;;;;;;2.47;0.93;;;;;;;8.79;100.00;95566.03;7402828;19;20114;-62
2023/11/05 04:26:53;;;;;;;0.52;0.52;;;;;;;8.92;100.00;95571.28;7399603;19;20024;-62
2023/11/05 04:29:20;;;;;;;0.43;0.22;;;;;;;8.91;100.00;95569.81;7399584;19;20010;-62
2023/11/05 04:31:46;;;;;;;0.20;0.20;;;;;;;8.96;100.00;95573.66;7400913;19;20025;-62
2023/11/05 04:34:12;;;;;;;9.07;0.65;;;;;;;9.15;100.00;95577.38;7398179;19;20373;-63
2023/11/05 04:36:40;;;;;;;0.10;0.10;;;;;;;8.74;100.00;95594.75;7397860;19;20020;-59
2023/11/05 04:39:07;;;;;;;0.85;0.85;;;;;;;8.72;100.00;95585.50;7400348;19;20644;-62
2023/11/05 04:41:33;;;;;;;0.52;0.35;;;;;;;8.64;100.00;95602.19;7402757;19;20504;-62
2023/11/05 04:43:59;;;;;;;0.40;0.40;;;;;;;8.59;100.00;95602.44;7399954;19;20031;-62
2023/11/05 04:46:25;;;;;;;1.13;0.20;;;;;;;8.64;100.00;95610.50;7399126;19;20010;-61
2023/11/05 04:48:51;;;;;;;0.15;0.10;;;;;;;8.84;100.00;95615.00;7399004;19;20015;-61
2023/11/05 04:51:17;;;;;;;0.43;0.43;;;;;;;8.65;100.00;95614.03;7399307;19;20022;-61
2023/11/05 04:53:44;;;;;;;1.35;1.25;;;;;;;8.57;100.00;95616.88;7399910;19;20007;-61
2023/11/05 04:56:15;;;;;;;3.28;0.30;;;;;;;8.98;100.00;95613.41;7396059;19;20034;-62
2023/11/05 04:58:41;;;;;;;0.40;0.40;;;;;;;8.49;100.00;95616.16;7404005;19;20013;-62
2023/11/05 05:01:07;;;;;;;2.40;0.73;;;;;;;8.86;100.00;95623.47;7399511;19;20007;-62
2023/11/05 05:03:33;;;;;;;0.10;0.10;;;;;;;8.56;100.00;95625.72;7395839;19;20017;-62
2023/11/05 05:05:59;;;;;;;0.10;0.10;;;;;;;8.49;100.00;95641.09;7398731;19;20070;-61
2023/11/05 05:08:26;;;;;;;0.80;0.52;;;;;;;8.17;100.00;95643.84;7397114;19;20017;-61
2023/11/05 05:10:52;;;;;;;0.20;0.20;;;;;;;8.22;100.00;95651.97;7398294;19;20011;-61
2023/11/05 05:13:18;;;;;;;0.30;0.30;;;;;;;8.20;100.00;95645.50;7397184;19;20011;-61
2023/11/05 05:15:44;;;;;;;0.25;0.10;;;;;;;7.96;100.00;95652.44;7395377;19;20036;-61
2023/11/05 05:18:10;;;;;;;0.10;0.10;;;;;;;7.98;100.00;95652.63;7398148;19;20027;-61
2023/11/05 05:20:36;;;;;;;0.38;0.38;;;;;;;7.95;100.00;95662.03;7395657;19;20044;-61
2023/11/05 05:23:03;;;;;;;0.10;0.10;;;;;;;7.99;100.00;95658.91;7399256;19;20039;-61
2023/11/05 05:25:29;;;;;;;0.25;0.25;;;;;;;7.94;100.00;95673.69;7396605;19;20034;-61
2023/11/05 05:27:55;;;;;;;0.50;0.40;;;;;;;7.85;100.00;95677.03;7396116;19;20016;-61
2023/11/05 05:30:21;;;;;;;0.10;0.10;;;;;;;7.96;100.00;95682.16;7397168;19;20082;-62
2023/11/05 05:32:48;;;;;;;0.17;0.17;;;;;;;7.95;100.00;95695.28;7394596;19;20368;-62
2023/11/05 05:35:14;;;;;;;0.75;0.45;;;;;;;7.72;100.00;95710.47;7395224;19;20014;-62
2023/11/05 05:37:40;;;;;;;1.42;0.65;;;;;;;7.78;100.00;95706.22;7395432;19;20448;-61
2023/11/05 05:40:06;;;;;;;1.40;0.55;;;;;;;7.82;100.00;95714.16;7394950;19;20025;-62
2023/11/05 05:42:33;;;;;;;0.30;0.25;;;;;;;7.72;100.00;95716.03;7394943;19;20467;-61
2023/11/05 05:44:59;;;;;;;12.23;1.55;;;;;;;7.74;100.00;95718.97;7395440;19;20455;-61
2023/11/05 05:47:25;;;;;;;0.52;0.40;;;;;;;7.52;100.00;95732.28;7396103;19;20048;-61
2023/11/05 05:49:51;;;;;;;0.10;0.10;;;;;;;7.58;100.00;95738.38;7395346;19;20014;-61
2023/11/05 05:52:17;;;;;;;0.40;0.40;;;;;;;7.51;100.00;95741.88;7395160;19;20035;-61
2023/11/05 05:54:43;;;;;;;0.28;0.28;;;;;;;8.32;100.00;95751.91;7395898;19;20508;-61
2023/11/05 05:57:09;;;;;;;0.63;0.45;;;;;;;8.55;100.00;95755.34;7397417;19;20352;-61
2023/11/05 05:59:35;;;;;;;0.35;0.35;;;;;;;8.22;100.00;95759.31;7396970;19;20014;-61
2023/11/05 06:02:05;;;;;;;2.92;0.35;;;;;;;8.23;100.00;95766.31;7394706;19;20018;-63
2023/11/05 06:04:31;;;;;;;0.52;0.52;;;;;;;8.46;100.00;95757.94;7395386;19;20080;-61
2023/11/05 06:06:57;;;;;;;0.57;0.30;;;;;;;8.18;100.00;95767.25;7394530;19;20010;-62
2023/11/05 06:09:24;;;;;;;0.10;0.10;;;;;;;8.42;100.00;95768.69;7394080;19;20016;-62
2023/11/05 06:11:50;;;;;;;0.35;0.35;;;;;;;8.21;100.00;95775.19;7395231;19;20018;-61
2023/11/05 06:14:16;;;;;;;0.20;0.20;;;;;;;8.20;100.00;95786.84;7396057;19;20011;-62
2023/11/05 06:16:42;;;;;;;0.20;0.20;;;;;;;8.16;100.00;95781.69;7396776;19;20070;-61
2023/11/05 06:19:09;;;;;;;0.17;0.17;;;;;;;8.16;100.00;95787.22;7396561;19;20468;-62
2023/11/05 06:21:35;;;;;;;0.13;0.13;;;;;;;7.64;100.00;95793.56;7399236;19;20082;-62
2023/11/05 06:24:02;;;;;;;0.30;0.30;;;;;;;7.71;100.00;95812.19;7399293;19;20018;-61
2023/11/05 06:26:29;;;;;;;1.48;0.20;;;;;;;7.55;100.00;95819.78;7394948;19;20043;-61
2023/11/05 06:28:55;;;;;;;0.10;0.10;;;;;;;8.06;100.00;95821.56;7394146;19;20019;-61
2023/11/05 06:31:21;;;;;;;0.10;0.10;;;;;;;8.10;100.00;95838.59;7399074;19;20018;-62
2023/11/05 06:33:47;;;;;;;0.40;0.30;;;;;;;8.03;100.00;95829.00;7393629;19;20003;-62
2023/11/05 06:36:13;;;;;;;0.35;0.20;;;;;;;8.11;100.00;95834.50;7395109;19;20027;-62
2023/11/05 06:38:40;;;;;;;8.18;0.63;;;;;;;7.73;100.00;95844.88;7390404;19;20048;-62
2023/11/05 06:41:06;;;;;;;0.30;0.30;;;;;;;7.60;100.00;95854.13;7398464;19;20014;-62
2023/11/05 06:43:33;;;;;;;0.10;0.00;;;;;;;7.48;100.00;95859.25;7393302;19;20070;-62
2023/11/05 06:45:59;;;;;;;0.63;0.35;;;;;;;7.36;100.00;95860.16;7395576;19;20014;-62
2023/11/05 06:48:25;;;;;;;0.20;0.20;;;;;;;7.31;100.00;95872.13;7394605;19;20011;-61
2023/11/05 06:50:51;;;;;;;0.40;0.30;;;;;;;7.25;100.00;95874.34;7398222;19;20721;-61
2023/11/05 06:53:17;;;;;;;0.25;0.25;;;;;;;7.12;100.00;95883.53;7397338;19;20088;-62
2023/11/05 06:55:43;;;;;;;0.10;0.10;;;;;;;7.09;100.00;95884.63;7394082;19;20010;-61
2023/11/05 06:58:10;;;;;;;0.43;0.43;;;;;;;7.44;100.00;95885.81;7398873;19;20014;-62
2023/11/05 07:00:38;;;;;;;0.10;0.10;;;;;;;7.44;100.00;95896.88;7398774;19;20019;-62
2023/11/05 07:03:04;;;;;;;0.10;0.08;;;;;;;7.30;100.00;95903.84;7395577;19;20010;-62
2023/11/05 07:05:30;;;;;;;2.92;0.45;;;;;;;7.28;100.00;95912.72;7395318;19;20036;-61
2023/11/05 07:07:56;;;;;;;0.30;0.13;;;;;;;7.37;100.00;95926.03;7394540;19;20021;-62
2023/11/05 07:10:22;;;;;;;0.30;0.30;;;;;;;7.54;100.00;95934.56;7396993;19;20035;-62
2023/11/05 07:12:48;;;;;;;1.58;0.45;;;;;;;7.94;100.00;95942.38;7394932;19;20110;-62
2023/11/05 07:15:15;;;;;;;0.30;0.30;;;;;;;7.84;100.00;95942.16;7393309;19;20027;-62
2023/11/05 07:17:41;;;;;;;1.17;0.40;;;;;;;8.10;100.00;95952.19;7392466;19;20015;-62
2023/11/05 07:20:12;;;;;;;0.13;0.13;;;;;;;7.93;100.00;95951.97;7395674;19;20014;-62
2023/11/05 07:22:38;;;;;;;0.30;0.30;;;;;;;8.27;100.00;95966.25;7394865;19;20006;-61
2023/11/05 07:25:05;;;;;;;0.40;0.40;;;;;;;8.21;100.00;95966.41;7393955;19;20010;-61
2023/11/05 07:27:31;;;;;;;0.25;0.20;;;;;;;8.47;100.00;95970.13;7393930;19;20018;-61
2023/11/05 07:29:58;;;;;;;0.55;0.13;;;;;;;8.63;100.00;95977.88;7395135;19;20014;-61
2023/11/05 07:32:24;;;;;;;4.95;0.95;;;;;;;8.59;100.00;95974.75;7393349;19;20521;-61
2023/11/05 07:34:51;;;;;;;0.35;0.25;;;;;;;8.61;100.00;95980.47;7393192;19;20084;-61
2023/11/05 07:37:17;;;;;;;0.85;0.85;;;;;;;8.69;100.00;95983.97;7396241;19;20010;-61
2023/11/05 07:39:43;;;;;;;0.15;0.15;;;;;;;8.68;100.00;95993.59;7393969;19;20071;-61
2023/11/05 07:42:10;;;;;;;0.50;0.50;;;;;;;8.68;100.00;96001.16;7395182;19;20126;-61
2023/11/05 07:44:36;;;;;;;0.10;0.10;;;;;;;8.79;100.00;96009.84;7397765;19;20035;-61
2023/11/05 07:47:03;;;;;;;0.30;0.30;;;;;;;8.95;100.00;96007.78;7394772;19;20014;-61
2023/11/05 07:49:29;;;;;;;0.10;0.10;;;;;;;8.93;100.00;96022.22;7393091;19;20006;-61
2023/11/05 07:51:55;;;;;;;2.05;0.80;;;;;;;8.79;100.00;96023.69;7392633;19;20007;-61
2023/11/05 07:54:21;;;;;;;0.73;0.43;;;;;;;8.86;100.00;96038.88;7395740;19;20015;-61
2023/11/05 07:56:52;;;;;;;0.85;0.57;;;;;;;9.08;100.00;96038.09;7397069;19;20007;-61
2023/11/05 07:59:18;;;;;;;0.10;0.10;;;;;;;8.98;100.00;96046.28;7391985;19;20015;-61
2023/11/05 08:01:45;;;;;;;0.22;0.22;;;;;;;9.51;100.00;96050.94;7396407;19;20029;-61
2023/11/05 08:04:11;;;;;;;0.65;0.47;;;;;;;9.62;100.00;96047.75;7391301;19;20351;-61
2023/11/05 08:06:38;;;;;;;0.82;0.47;;;;;;;10.01;100.00;96046.28;7390673;19;20021;-61
2023/11/05 08:09:04;;;;;;;0.80;0.80;;;;;;;9.46;100.00;96057.44;7390006;19;20507;-61
2023/11/05 08:11:30;;;;;;;0.45;0.43;;;;;;;9.73;100.00;96055.69;7395965;19;20342;-61
2023/11/05 08:13:57;;;;;;;0.10;0.00;;;;;;;10.38;100.00;96056.47;7390799;19;20018;-61
2023/11/05 08:16:23;;;;;;;0.47;0.47;;;;;;;9.65;100.00;96057.75;7388757;19;20359;-61
2023/11/05 08:18:49;;;;;;;2.15;0.30;;;;;;;9.48;100.00;96068.72;7389102;19;20011;-61
2023/11/05 08:21:15;;;;;;;0.55;0.22;;;;;;;9.58;100.00;96067.59;7393995;19;20018;-61
2023/11/05 08:23:41;;;;;;;0.50;0.30;;;;;;;9.75;100.00;96078.81;7395090;19;20015;-61
2023/11/05 08:26:08;;;;;;;1.30;0.30;;;;;;;9.49;100.00;96084.09;7394304;19;20447;-61
2023/11/05 08:28:34;;;;;;;0.40;0.40;;;;;;;9.60;100.00;96092.75;7390596;19;20472;-61
2023/11/05 08:31:01;;;;;;;1.23;0.20;;;;;;;9.66;100.00;96095.31;7396387;19;20535;-61
2023/11/05 08:33:29;;;;;;;0.20;0.20;;;;;;;9.61;100.00;96110.19;7390849;19;20021;-61
2023/11/05 08:35:55;;;;;;;1.65;0.40;;;;;;;9.78;100.00;96110.31;7390809;19;20036;-61
2023/11/05 08:38:21;;;;;;;0.10;0.10;;;;;;;9.72;100.00;96116.06;7396327;19;20018;-62
2023/11/05 08:40:49;;;;;;;0.20;0.20;;;;;;;9.92;100.00;96122.66;7393508;19;20021;-61
2023/11/05 08:43:15;;;;;;;0.90;0.30;;;;;;;10.45;100.00;96133.56;7392321;19;20034;-61
2023/11/05 08:45:41;;;;;;;0.43;0.22;;;;;;;10.05;100.00;96133.53;7393201;19;20006;-61
2023/11/05 08:48:08;;;;;;;0.47;0.32;;;;;;;9.96;100.00;96136.19;7396207;19;20074;-61
2023/11/05 08:50:34;;;;;;;0.52;0.40;;;;;;;10.05;100.00;96136.31;7392009;19;20007;-61
2023/11/05 08:53:00;;;;;;;2.72;0.70;;;;;;;10.13;100.00;96147.44;7390218;19;20010;-61
2023/11/05 08:55:28;;;;;;;0.73;0.32;;;;;;;10.22;100.00;96144.78;7392219;19;20025;-61
2023/11/05 08:57:56;;;;;;;2.20;1.05;;;;;;;10.20;100.00;96157.81;7392973;19;20018;-62
2023/11/05 09:00:28;;;;;;;0.80;0.47;;;;;;;10.14;100.00;96160.03;7387908;19;20007;-61
2023/11/05 09:02:55;;;;;;;0.73;0.40;;;;;;;10.25;100.00;96165.91;7393357;19;20562;-61
2023/11/05 09:05:24;;;;;;;0.95;0.50;;;;;;;10.27;100.00;96168.88;7394466;19;20019;-62
2023/11/05 09:07:51;;;;;;;1.13;0.63;;;;;;;10.37;100.00;96177.38;7394088;19;20011;-61
2023/11/05 09:10:20;;;;;;;0.10;0.00;;;;;;;17.52;100.00;96161.22;7397186;19;20074;-61
2023/11/05 09:12:49;;;;;;;1.25;0.55;;;;;;;11.32;100.00;96184.19;7395773;19;20019;-62
2023/11/05 09:15:15;;;;;;;1.13;0.68;;;;;;;10.53;100.00;96179.50;7393604;19;20336;-61
2023/11/05 09:17:41;;;;;;;0.32;0.20;;;;;;;14.07;100.00;96185.00;7392798;19;20018;-61
2023/11/05 09:20:10;;;;;;;0.98;0.47;;;;;;;21.01;100.00;96190.00;7397477;19;20014;-62
2023/11/05 09:22:37;;;;;;;0.20;0.20;;;;;;;20.79;100.00;96194.59;7396129;19;20010;-61
2023/11/05 09:25:05;;;;;;;2.30;0.50;;;;;;;19.97;100.00;96196.09;7398178;19;20374;-62
2023/11/05 09:27:31;;;;;;;0.10;0.10;;;;;;;12.16;100.00;96207.19;7396157;19;20031;-62
2023/11/05 09:29:58;;;;;;;0.93;0.40;;;;;;;11.08;100.00;96212.03;7397484;19;20019;-62
2023/11/05 09:32:25;;;;;;;0.10;0.10;;;;;;;10.68;100.00;96217.63;7402253;19;20073;-62
2023/11/05 09:34:52;;;;;;;0.70;0.65;;;;;;;16.39;100.00;96215.94;7397036;19;20010;-62
2023/11/05 09:37:18;;;;;;;0.75;0.70;;;;;;;18.01;100.00;96210.63;7396789;19;20026;-62
2023/11/05 09:39:45;;;;;;;0.38;0.10;;;;;;;17.39;100.00;96230.03;7395717;19;20787;-62
2023/11/05 09:42:17;;;;;;;0.68;0.68;;;;;;;11.97;100.00;96234.16;7399984;19;20015;-62
2023/11/05 09:44:44;;;;;;;0.20;0.20;;;;;;;10.92;100.00;96235.69;7397303;19;20034;-62
2023/11/05 09:47:11;;;;;;;2.92;0.88;;;;;;;10.65;100.00;96244.53;7395687;19;20023;-62
2023/11/05 09:49:37;;;;;;;0.28;0.28;;;;;;;10.59;100.00;96249.59;7395691;19;20015;-62
2023/11/05 09:52:06;;;;;;;0.30;0.30;;;;;;;10.67;100.00;96246.78;7396485;19;20095;-61
2023/11/05 09:54:32;;;;;;;1.70;0.65;;;;;;;10.75;100.00;96264.19;7399370;19;20039;-61
2023/11/05 09:56:58;;;;;;;1.02;0.75;;;;;;;10.79;100.00;96258.22;7398370;19;20028;-62
2023/11/05 09:59:24;;;;;;;1.38;0.35;;;;;;;10.86;100.00;96265.78;7394707;19;20022;-61
2023/11/05 10:01:54;;;;;;;2.55;1.10;;;;;;;11.02;100.00;96272.78;7395529;19;20049;-62
2023/11/05 10:04:21;;;;;;;0.93;0.67;;;;;;;11.77;100.00;96266.69;7394786;19;20038;-61
2023/11/05 10:06:50;;;;;;;1.27;0.68;;;;;;;11.32;100.00;96269.78;7400995;19;20015;-61
2023/11/05 10:09:16;;;;;;;0.10;0.10;;;;;;;11.31;100.00;96274.63;7396670;19;20106;-61
2023/11/05 10:11:43;;;;;;;0.75;0.50;;;;;;;11.82;100.00;96281.69;7396495;19;20003;-61
2023/11/05 10:14:11;;;;;;;2.20;0.30;;;;;;;11.41;100.00;96277.53;7396274;19;20022;-61
2023/11/05 10:16:38;;;;;;;0.80;0.80;;;;;;;11.22;100.00;96286.38;7393845;19;20007;-61
2023/11/05 10:19:07;;;;;;;0.45;0.45;;;;;;;11.24;100.00;96294.19;7395366;19;20328;-62
2023/11/05 10:21:35;;;;;;;5.47;0.77;;;;;;;11.49;100.00;96303.28;7395526;19;20018;-61
2023/11/05 10:24:02;;;;;;;0.85;0.20;;;;;;;11.68;100.00;96305.59;7398519;19;20023;-62
2023/11/05 10:26:29;;;;;;;0.47;0.47;;;;;;;11.66;100.00;96308.94;7394414;19;20018;-62
2023/11/05 10:28:56;;;;;;;7.13;0.57;;;;;;;11.72;100.00;96315.03;7394874;19;20021;-62
2023/11/05 10:31:24;;;;;;;2.08;0.85;;;;;;;13.64;100.00;96303.38;7395467;19;20015;-61
2023/11/05 10:33:52;;;;;;;1.90;0.40;;;;;;;12.42;100.00;96316.66;7395841;19;20014;-62
2023/11/05 10:36:19;;;;;;;0.65;0.63;;;;;;;13.30;100.00;96312.63;7393418;19;20010;-61
2023/11/05 10:38:48;;;;;;;0.10;0.10;;;;;;;11.69;100.00;96318.97;7395535;19;20010;-61
2023/11/05 10:41:18;;;;;;;0.00;0.00;;;;;;;11.93;100.00;96337.00;7399179;19;20015;-61
2023/11/05 10:43:49;;;;;;;0.10;0.10;;;;;;;11.90;100.00;96341.66;7395547;19;20035;-62
2023/11/05 10:46:20;;;;;;;0.68;0.68;;;;;;;12.71;100.00;96348.34;7396233;19;20010;-61
2023/11/05 10:48:56;;;;;;;;;;;;;;;12.25;100.00;96350.09;7395811;19;20010;-62
2023/11/05 10:51:24;;;;;;;1.45;0.52;;;;;;;13.16;100.00;96353.44;7398983;19;19949;-61
2023/11/05 10:53:52;;;;;;;0.32;0.10;;;;;;;12.67;100.00;96354.34;7397244;19;20014;-61
2023/11/05 10:56:32;;;;;;;0.77;0.32;;;;;;;13.52;100.00;96356.28;7392707;19;20017;-62
2023/11/05 10:59:02;;;;;;;0.10;0.10;;;;;;;14.01;100.00;96371.25;7394681;19;20022;-62
2023/11/05 11:01:30;;;;;;;0.30;0.30;;;;;;;14.03;100.00;96374.19;7397561;19;20240;-61
2023/11/05 11:04:04;;;;;;;0.75;0.35;;;;;;;18.25;100.00;96376.75;7394792;19;20015;-62
2023/11/05 11:06:30;;;;;;;0.20;0.05;;;;;;;14.84;100.00;96378.97;7393772;19;20015;-61
2023/11/05 11:09:22;;;;;;;0.25;0.10;;;;;;;14.44;100.00;96378.78;7394885;19;20015;-61
2023/11/05 11:11:49;;;;;;;0.10;0.10;;;;;;;13.18;100.00;96383.56;7395316;19;20018;-61
2023/11/05 11:14:15;;;;;;;0.35;0.32;;;;;;;13.55;100.00;96388.69;7395098;19;20039;-62
2023/11/05 11:16:43;;;;;;;0.40;0.40;;;;;;;13.97;100.00;96393.31;7393333;19;20010;-62
2023/11/05 11:19:15;;;;;;;1.98;0.70;;;;;;;13.99;100.00;96396.28;7394087;19;20018;-62
2023/11/05 11:22:10;;;;;;;0.55;0.40;;;;;;;14.22;100.00;96407.84;7395428;19;20077;-61
2023/11/05 11:24:38;;;;;;;0.30;0.20;;;;;;;13.84;100.00;96413.28;7392558;19;20018;-62
2023/11/05 11:27:06;;;;;;;0.43;0.10;;;;;;;14.11;100.00;96413.97;7394184;19;20010;-61
2023/11/05 11:29:41;;;;;;;0.20;0.20;;;;;;;14.51;100.00;96421.97;7394571;19;20006;-62